Time;durP1;ratioP1;P1;durP2;ratioP2;P2;SDS_P1;SDS_P2;PMS_P1;PMS_P2;Temp;Humidity;BMP_temperature;BMP_pressure;BME280_temperature;BME280_humidity;BME280_pressure;Samples;Min_cycle;Max_cycle;Signal;HPM_P1;HPM_P2
2022/07/28 00:00:16;;;;;;;1.40;0.70;;;15.50;99.90;;;;;;4840579;29;20459;-33
2022/07/28 00:02:42;;;;;;;2.72;0.63;;;15.40;99.90;;;;;;4847869;29;20605;-37
2022/07/28 00:05:08;;;;;;;5.55;1.55;;;15.40;99.90;;;;;;4832687;29;20207;-37
2022/07/28 00:07:33;;;;;;;1.17;0.80;;;15.40;99.90;;;;;;4847426;29;20038;-39
2022/07/28 00:09:59;;;;;;;1.30;0.85;;;15.30;99.90;;;;;;4846411;29;20486;-39
2022/07/28 00:12:24;;;;;;;1.35;0.55;;;15.30;99.90;;;;;;4841768;29;20064;-40
2022/07/28 00:14:50;;;;;;;3.80;0.70;;;15.30;99.90;;;;;;4834306;29;20444;-37
2022/07/28 00:17:16;;;;;;;1.17;1.08;;;15.30;99.90;;;;;;4836245;29;20033;-40
2022/07/28 00:19:41;;;;;;;1.75;0.82;;;15.30;99.90;;;;;;4850415;29;20116;-39
2022/07/28 00:22:07;;;;;;;1.13;0.60;;;15.20;99.90;;;;;;4834833;29;20093;-34
2022/07/28 00:24:33;;;;;;;1.05;0.95;;;15.20;99.90;;;;;;4846444;29;20449;-31
2022/07/28 00:26:59;;;;;;;0.80;0.40;;;15.30;99.90;;;;;;4833711;29;20029;-34
2022/07/28 00:29:25;;;;;;;3.00;1.27;;;15.30;99.90;;;;;;4832972;29;20034;-38
2022/07/28 00:31:50;;;;;;;2.00;0.43;;;15.30;99.90;;;;;;4839293;29;20041;-36
2022/07/28 00:34:16;;;;;;;2.00;0.90;;;15.30;99.90;;;;;;4835355;29;20029;-37
2022/07/28 00:36:42;;;;;;;1.35;0.70;;;15.20;99.90;;;;;;4837576;29;20036;-37
2022/07/28 00:41:52;;;;;;;0.80;0.80;;;15.20;99.90;;;;;;4841174;29;20093;-37
2022/07/28 00:44:18;;;;;;;1.00;0.60;;;15.10;99.90;;;;;;4848476;29;20041;-33
2022/07/28 00:46:44;;;;;;;3.75;0.80;;;15.10;99.90;;;;;;4840283;29;20030;-39
2022/07/28 00:49:10;;;;;;;3.53;0.90;;;15.10;99.90;;;;;;4837881;29;20156;-37
2022/07/28 00:51:36;;;;;;;1.58;0.50;;;15.10;99.90;;;;;;4832097;29;20104;-37
2022/07/28 00:54:02;;;;;;;3.67;0.80;;;15.10;99.90;;;;;;4847874;29;20062;-37
2022/07/28 00:56:27;;;;;;;1.13;0.90;;;15.10;99.90;;;;;;4828734;29;20056;-35
2022/07/28 00:58:53;;;;;;;1.25;0.63;;;15.00;99.90;;;;;;4829028;29;20105;-37
2022/07/28 01:01:19;;;;;;;1.73;0.77;;;15.00;99.90;;;;;;4813098;29;20069;-40
2022/07/28 01:03:50;;;;;;;2.78;0.50;;;15.00;99.90;;;;;;4830128;29;20480;-37
2022/07/28 01:06:28;;;;;;;1.83;0.80;;;14.90;99.90;;;;;;4829663;29;20403;-36
2022/07/28 01:09:30;;;;;;;7.38;1.08;;;14.90;99.90;;;;;;4832245;29;20041;-33
2022/07/28 01:12:23;;;;;;;2.05;0.70;;;14.80;99.90;;;;;;4829603;29;20475;-37
2022/07/28 01:14:57;;;;;;;3.40;0.90;;;14.80;99.90;;;;;;4826921;29;20144;-39
2022/07/28 01:17:37;;;;;;;1.23;0.77;;;14.70;99.90;;;;;;4831119;29;20108;-40
2022/07/28 01:20:11;;;;;;;6.63;1.35;;;14.70;99.90;;;;;;4824143;29;20045;-36
2022/07/28 01:22:40;;;;;;;1.25;0.55;;;14.60;99.90;;;;;;4830456;29;20082;-35
2022/07/28 01:25:16;;;;;;;5.55;1.00;;;14.60;99.90;;;;;;4824959;29;20033;-36
2022/07/28 01:27:47;;;;;;;1.17;0.80;;;14.60;99.90;;;;;;4837006;29;20113;-38
2022/07/28 01:30:34;;;;;;;1.75;0.70;;;14.60;99.90;;;;;;4829124;29;20030;-36
2022/07/28 01:33:20;;;;;;;7.53;0.88;;;14.60;99.90;;;;;;4833913;29;20033;-41
2022/07/28 01:35:53;;;;;;;4.13;0.70;;;14.60;99.90;;;;;;4828498;29;20044;-39
2022/07/28 01:38:21;;;;;;;1.90;1.20;;;14.70;99.90;;;;;;4827694;29;20411;-37
2022/07/28 01:40:51;;;;;;;0.73;0.73;;;14.60;99.90;;;;;;4827447;29;20261;-41
2022/07/28 01:43:21;;;;;;;2.17;0.65;;;14.60;99.90;;;;;;4829227;29;20121;-37
2022/07/28 01:45:46;;;;;;;2.58;0.70;;;14.60;99.90;;;;;;4827888;29;20030;-40
2022/07/28 01:48:16;;;;;;;1.83;0.88;;;14.60;99.90;;;;;;4825536;29;20556;-39
2022/07/28 01:50:45;;;;;;;3.80;0.70;;;14.60;99.90;;;;;;4840534;29;20083;-37
2022/07/28 01:53:13;;;;;;;1.55;1.25;;;14.60;99.90;;;;;;4825474;29;20026;-40
2022/07/28 01:55:41;;;;;;;;;;;14.60;99.90;;;;;;4830910;29;20440;-36
2022/07/28 01:58:07;;;;;;;1.42;0.73;;;14.50;99.90;;;;;;4835107;29;20123;-39
2022/07/28 02:00:34;;;;;;;2.22;0.68;;;14.50;99.90;;;;;;4842200;29;20045;-39
2022/07/28 02:03:04;;;;;;;0.65;0.63;;;14.50;99.90;;;;;;4835085;29;20042;-38
2022/07/28 02:05:31;;;;;;;3.35;0.70;;;14.50;99.90;;;;;;4823782;29;20510;-42
2022/07/28 02:08:18;;;;;;;1.83;0.65;;;14.50;99.90;;;;;;4842820;29;20029;-41
2022/07/28 02:11:38;;;;;;;2.30;0.73;;;14.50;99.90;;;;;;4844848;29;20700;-39
2022/07/28 02:13:32;;;;;;;0.90;0.60;;;14.40;99.90;;;;;;4839788;29;20076;-34
2022/07/28 02:16:00;;;;;;;3.08;0.82;;;14.50;99.90;;;;;;4838897;29;20029;-38
2022/07/28 02:18:27;;;;;;;2.63;0.63;;;14.50;99.90;;;;;;4836674;29;20517;-37
2022/07/28 02:20:52;;;;;;;1.10;0.75;;;14.50;99.90;;;;;;4843685;29;20502;-39
2022/07/28 02:23:21;;;;;;;2.25;1.00;;;14.60;99.90;;;;;;4832415;29;20205;-35
2022/07/28 02:25:49;;;;;;;3.72;0.80;;;14.50;99.90;;;;;;4846780;29;20436;-39
2022/07/28 02:28:20;;;;;;;2.95;0.82;;;14.50;99.90;;;;;;4838210;29;20117;-43
2022/07/28 02:30:58;;;;;;;2.17;0.65;;;14.50;99.90;;;;;;4839596;29;20038;-35
2022/07/28 02:33:26;;;;;;;1.63;0.80;;;14.50;99.90;;;;;;4834699;29;20026;-35
2022/07/28 02:36:09;;;;;;;3.28;0.85;;;14.50;99.90;;;;;;4818497;29;20041;-37
2022/07/28 02:38:42;;;;;;;1.42;0.90;;;14.50;99.90;;;;;;4839602;29;20030;-35
2022/07/28 02:41:14;;;;;;;3.22;0.75;;;14.40;99.90;;;;;;4831506;29;20551;-37
2022/07/28 02:43:44;;;;;;;1.17;0.50;;;14.40;99.90;;;;;;4829824;29;20477;-37
2022/07/28 02:46:15;;;;;;;1.42;0.80;;;14.40;99.90;;;;;;4827340;29;20575;-40
2022/07/28 02:48:44;;;;;;;0.88;0.80;;;14.40;99.90;;;;;;4830554;29;20037;-38
2022/07/28 02:51:11;;;;;;;3.17;0.60;;;14.50;99.90;;;;;;4821785;29;20054;-37
2022/07/28 02:53:38;;;;;;;4.68;1.27;;;14.50;99.90;;;;;;4831137;29;20026;-36
2022/07/28 02:56:04;;;;;;;3.08;0.70;;;14.50;99.90;;;;;;4823744;29;20190;-42
2022/07/28 02:58:32;;;;;;;1.38;0.70;;;14.50;99.90;;;;;;4828821;29;20540;-38
2022/07/28 03:00:58;;;;;;;1.83;0.68;;;14.50;99.90;;;;;;4822464;29;20041;-36
2022/07/28 03:03:24;;;;;;;3.80;1.13;;;14.50;99.90;;;;;;4831798;29;20066;-38
2022/07/28 03:05:50;;;;;;;0.88;0.80;;;14.50;99.90;;;;;;4830136;29;20084;-37
2022/07/28 03:08:16;;;;;;;1.20;0.82;;;14.50;99.90;;;;;;4825883;29;20042;-34
2022/07/28 03:10:42;;;;;;;6.10;0.70;;;14.50;99.90;;;;;;4821200;29;20038;-36
2022/07/28 03:13:08;;;;;;;1.77;0.65;;;14.50;99.90;;;;;;4833511;29;20090;-54
2022/07/28 03:15:35;;;;;;;1.50;1.30;;;14.60;99.90;;;;;;4831556;29;20515;-35
2022/07/28 03:18:03;;;;;;;1.75;0.75;;;14.50;99.90;;;;;;4827348;29;20030;-37
2022/07/28 03:20:30;;;;;;;;;;;14.50;99.90;;;;;;4823579;29;20482;-40
2022/07/28 03:22:57;;;;;;;8.82;1.00;;;14.50;99.90;;;;;;4822479;29;19916;-39
2022/07/28 03:25:35;;;;;;;5.15;0.73;;;14.50;99.90;;;;;;4818075;29;20050;-36
2022/07/28 03:28:02;;;;;;;6.30;0.70;;;14.50;99.90;;;;;;4818922;29;20533;-38
2022/07/28 03:30:33;;;;;;;2.33;0.87;;;14.50;99.90;;;;;;4824930;29;20540;-38
2022/07/28 03:33:01;;;;;;;3.97;0.90;;;14.50;99.90;;;;;;4824730;29;20610;-33
2022/07/28 03:35:27;;;;;;;;;;;14.50;99.90;;;;;;4833225;29;20029;-39
2022/07/28 03:38:10;;;;;;;1.33;0.80;;;14.50;99.90;;;;;;4826697;29;20479;-38
2022/07/28 03:40:37;;;;;;;1.33;0.57;;;14.50;99.90;;;;;;4835174;29;20050;-39
2022/07/28 03:43:06;;;;;;;3.38;0.90;;;14.50;99.90;;;;;;4844842;29;20399;-38
2022/07/28 03:45:36;;;;;;;3.95;0.70;;;14.50;99.90;;;;;;4840574;29;20051;-36
2022/07/28 03:48:02;;;;;;;2.92;0.70;;;14.40;99.90;;;;;;4840063;29;20041;-35
2022/07/28 03:50:29;;;;;;;1.95;1.00;;;14.40;99.90;;;;;;4847446;29;20045;-39
2022/07/28 03:52:56;;;;;;;;;;;14.40;99.90;;;;;;4848517;29;20022;-36
2022/07/28 03:55:22;;;;;;;3.30;0.85;;;14.40;99.90;;;;;;4840148;29;19930;-35
2022/07/28 03:57:47;;;;;;;0.88;0.88;;;14.30;99.90;;;;;;4842618;29;20059;-39
2022/07/28 04:00:15;;;;;;;1.17;0.75;;;14.30;99.90;;;;;;4843071;29;20281;-36
2022/07/28 04:02:42;;;;;;;3.72;0.80;;;14.40;99.90;;;;;;4840487;29;20029;-34
2022/07/28 04:05:13;;;;;;;4.10;0.80;;;14.40;99.90;;;;;;4843348;29;20040;-35
2022/07/28 04:07:39;;;;;;;2.53;1.30;;;14.40;99.90;;;;;;4845499;29;20033;-40
2022/07/28 04:10:07;;;;;;;2.95;0.85;;;14.40;99.90;;;;;;4834994;29;20509;-38
2022/07/28 04:12:50;;;;;;;2.55;1.40;;;14.40;99.90;;;;;;4841794;29;20068;-37
2022/07/28 04:15:17;;;;;;;5.18;1.17;;;14.40;99.90;;;;;;4841802;29;20018;-40
2022/07/28 04:17:43;;;;;;;1.15;0.93;;;14.40;99.90;;;;;;4847924;29;20494;-46
2022/07/28 04:20:10;;;;;;;2.85;0.90;;;14.40;99.90;;;;;;4843947;29;20150;-40
2022/07/28 04:22:36;;;;;;;3.72;0.65;;;14.40;99.90;;;;;;4845041;29;20337;-39
2022/07/28 04:25:03;;;;;;;1.75;0.88;;;14.40;99.90;;;;;;4839167;29;20033;-40
2022/07/28 04:27:28;;;;;;;3.35;0.63;;;14.40;99.90;;;;;;4835877;29;20452;-38
2022/07/28 04:29:54;;;;;;;5.88;0.85;;;14.40;99.90;;;;;;4834340;29;20057;-36
2022/07/28 04:32:20;;;;;;;2.97;0.65;;;14.50;99.90;;;;;;4845322;29;20078;-34
2022/07/28 04:34:45;;;;;;;0.75;0.63;;;14.40;99.90;;;;;;4836707;29;20034;-38
2022/07/28 04:37:13;;;;;;;5.38;0.88;;;14.50;99.90;;;;;;4835857;29;20084;-39
2022/07/28 04:39:39;;;;;;;2.13;0.68;;;14.50;99.90;;;;;;4844269;29;20078;-39
2022/07/28 04:42:05;;;;;;;2.28;1.02;;;14.50;99.90;;;;;;4837548;29;20068;-39
2022/07/28 04:44:31;;;;;;;9.20;0.90;;;14.50;99.90;;;;;;4838500;29;20053;-37
2022/07/28 04:46:57;;;;;;;2.17;0.98;;;14.40;99.90;;;;;;4821789;29;20448;-42
2022/07/28 04:49:22;;;;;;;3.63;0.93;;;14.40;99.90;;;;;;4843757;29;20030;-51
2022/07/28 04:51:49;;;;;;;4.45;0.85;;;14.40;99.90;;;;;;4826364;29;20034;-38
2022/07/28 04:54:16;;;;;;;2.13;0.90;;;14.40;99.90;;;;;;4853758;29;20479;-37
2022/07/28 04:56:41;;;;;;;1.70;0.73;;;14.40;99.90;;;;;;4836464;29;20344;-39
2022/07/28 04:59:07;;;;;;;3.13;1.00;;;14.50;99.90;;;;;;4833958;29;20511;-53
2022/07/28 05:01:34;;;;;;;1.48;0.80;;;14.50;99.90;;;;;;4841472;29;20144;-35
2022/07/28 05:04:00;;;;;;;1.35;0.98;;;14.50;99.90;;;;;;4836385;29;20056;-35
2022/07/28 05:06:25;;;;;;;0.80;0.80;;;14.50;99.90;;;;;;4843490;29;20034;-37
2022/07/28 05:08:51;;;;;;;3.03;0.90;;;14.50;99.90;;;;;;4836115;29;20487;-41
2022/07/28 05:11:17;;;;;;;1.40;0.73;;;14.60;99.90;;;;;;4842848;29;20038;-39
2022/07/28 05:13:43;;;;;;;1.50;0.77;;;14.60;99.90;;;;;;4847261;29;20044;-38
2022/07/28 05:16:08;;;;;;;1.58;0.70;;;14.60;99.90;;;;;;4839841;29;20343;-35
2022/07/28 05:18:34;;;;;;;4.03;0.88;;;14.70;99.90;;;;;;4843174;29;20032;-37
2022/07/28 05:21:00;;;;;;;3.90;1.85;;;14.80;99.90;;;;;;4833793;29;20048;-41
2022/07/28 05:23:25;;;;;;;1.63;0.50;;;14.90;99.90;;;;;;4843195;29;20045;-39
2022/07/28 05:25:51;;;;;;;5.80;1.05;;;14.90;99.90;;;;;;4852348;29;20036;-36
2022/07/28 05:28:17;;;;;;;2.22;0.60;;;14.90;99.90;;;;;;4818006;29;20030;-38
2022/07/28 05:30:42;;;;;;;1.60;0.90;;;15.00;99.90;;;;;;4846338;29;20033;-38
2022/07/28 05:33:08;;;;;;;5.63;0.95;;;15.10;99.90;;;;;;4823171;29;20030;-34
2022/07/28 05:35:34;;;;;;;5.88;1.77;;;15.10;99.90;;;;;;4851779;29;20049;-36
2022/07/28 05:38:00;;;;;;;1.95;0.82;;;15.20;99.90;;;;;;4852403;29;20034;-50
2022/07/28 05:40:26;;;;;;;0.95;0.65;;;15.30;99.90;;;;;;4857786;29;20045;-37
2022/07/28 05:42:51;;;;;;;5.43;1.00;;;15.50;99.90;;;;;;4848585;29;20514;-37
2022/07/28 05:45:17;;;;;;;2.10;1.30;;;15.60;99.90;;;;;;4836877;29;20033;-41
2022/07/28 05:47:47;;;;;;;16.38;3.22;;;15.60;99.90;;;;;;4836486;29;20034;-36
2022/07/28 05:50:14;;;;;;;3.05;1.38;;;15.80;99.90;;;;;;4836638;29;20492;-33
2022/07/28 05:52:40;;;;;;;3.58;0.68;;;15.80;99.90;;;;;;4860011;29;20840;-35
2022/07/28 05:55:06;;;;;;;2.88;0.68;;;15.80;99.90;;;;;;4839305;29;20045;-41
2022/07/28 05:57:32;;;;;;;1.67;0.70;;;15.80;99.90;;;;;;4836354;29;20034;-34
2022/07/28 05:59:58;;;;;;;1.95;0.85;;;15.90;99.90;;;;;;4840859;29;20030;-39
2022/07/28 06:02:23;;;;;;;1.40;0.73;;;15.80;99.90;;;;;;4853325;29;20028;-40
2022/07/28 06:04:49;;;;;;;4.55;0.85;;;15.80;99.90;;;;;;4856962;29;20174;-34
2022/07/28 06:07:14;;;;;;;2.83;0.75;;;15.80;99.90;;;;;;4852245;29;20470;-34
2022/07/28 06:09:40;;;;;;;2.38;0.75;;;15.90;99.90;;;;;;4848424;29;20029;-39
2022/07/28 06:12:06;;;;;;;2.20;0.77;;;15.90;99.90;;;;;;4849804;29;20065;-39
2022/07/28 06:14:32;;;;;;;5.05;0.85;;;16.00;99.90;;;;;;4847646;29;20110;-38
2022/07/28 06:16:58;;;;;;;1.52;0.65;;;16.00;99.90;;;;;;4830151;29;20428;-34
2022/07/28 06:19:23;;;;;;;4.97;0.82;;;16.10;99.90;;;;;;4852914;29;20026;-39
2022/07/28 06:21:51;;;;;;;4.85;0.75;;;16.20;99.90;;;;;;4845610;29;20037;-37
2022/07/28 06:24:17;;;;;;;4.20;0.93;;;16.20;99.90;;;;;;4842386;29;20029;-38
2022/07/28 06:26:43;;;;;;;2.35;0.68;;;16.20;99.90;;;;;;4843728;29;20120;-38
2022/07/28 06:29:08;;;;;;;7.95;1.67;;;16.20;99.90;;;;;;4842411;29;20551;-34
2022/07/28 06:31:34;;;;;;;2.10;0.40;;;16.30;99.90;;;;;;4849340;29;20040;-39
2022/07/28 06:34:00;;;;;;;2.03;1.13;;;16.50;99.90;;;;;;4847770;29;20395;-38
2022/07/28 06:36:25;;;;;;;1.10;1.00;;;16.60;99.90;;;;;;4842898;29;20033;-38
2022/07/28 06:38:51;;;;;;;4.88;0.90;;;16.60;99.90;;;;;;4841381;29;20033;-40
2022/07/28 06:41:17;;;;;;;3.05;1.40;;;17.10;99.90;;;;;;4835913;29;20504;-38
2022/07/28 06:43:42;;;;;;;4.38;0.93;;;17.20;99.90;;;;;;4860727;29;20033;-34
2022/07/28 06:46:08;;;;;;;1.85;0.95;;;17.50;99.90;;;;;;4845321;29;20513;-39
2022/07/28 06:48:52;;;;;;;2.55;0.82;;;17.70;99.90;;;;;;4854268;29;20029;-38
2022/07/28 06:51:18;;;;;;;2.00;0.82;;;17.60;99.90;;;;;;4837760;29;20335;-39
2022/07/28 06:53:46;;;;;;;0.57;0.40;;;17.50;99.90;;;;;;4851738;29;20041;-33
2022/07/28 06:56:12;;;;;;;3.75;0.80;;;17.50;99.90;;;;;;4839659;29;20026;-36
2022/07/28 06:58:38;;;;;;;5.80;0.90;;;17.90;99.90;;;;;;4848837;29;20017;-40
2022/07/28 07:01:06;;;;;;;3.03;1.15;;;18.60;99.90;;;;;;4852681;29;20038;-38
2022/07/28 07:03:32;;;;;;;4.20;0.90;;;18.90;99.90;;;;;;4839571;29;20038;-37
2022/07/28 07:05:58;;;;;;;1.02;0.93;;;18.70;99.90;;;;;;4822293;29;20422;-34
2022/07/28 07:08:23;;;;;;;7.00;0.68;;;18.60;99.90;;;;;;4843170;29;20454;-39
2022/07/28 07:10:49;;;;;;;1.05;0.60;;;18.70;99.90;;;;;;4844680;29;20034;-39
2022/07/28 07:13:15;;;;;;;5.57;1.20;;;19.20;99.90;;;;;;4849579;29;20025;-36
2022/07/28 07:15:41;;;;;;;6.30;1.15;;;19.70;99.90;;;;;;4831408;29;20837;-39
2022/07/28 07:18:06;;;;;;;4.20;0.82;;;20.20;99.80;;;;;;4841939;29;20498;-39
2022/07/28 07:20:32;;;;;;;3.42;1.02;;;20.90;98.90;;;;;;4841737;29;20475;-33
2022/07/28 07:22:57;;;;;;;1.15;0.57;;;21.00;98.70;;;;;;4819652;29;20042;-43
2022/07/28 07:25:23;;;;;;;3.08;0.50;;;21.20;98.30;;;;;;4834885;29;20143;-35
2022/07/28 07:27:49;;;;;;;4.13;0.82;;;21.70;97.60;;;;;;4837678;29;20034;-40
2022/07/28 07:30:15;;;;;;;3.83;0.98;;;22.00;97.10;;;;;;4842701;29;20501;-37
2022/07/28 07:32:41;;;;;;;1.65;0.68;;;22.00;97.10;;;;;;4840590;29;20057;-38
2022/07/28 07:35:08;;;;;;;2.63;0.50;;;21.90;96.60;;;;;;4845500;29;20466;-37
2022/07/28 07:37:34;;;;;;;3.90;0.68;;;21.60;96.90;;;;;;4843906;29;20482;-34
2022/07/28 07:40:01;;;;;;;3.15;0.70;;;21.30;96.50;;;;;;4838609;29;20042;-32
2022/07/28 07:42:26;;;;;;;4.90;0.70;;;20.70;97.00;;;;;;4835827;29;20056;-41
2022/07/28 07:44:52;;;;;;;3.00;0.70;;;20.40;97.40;;;;;;4844884;29;20038;-38
2022/07/28 07:50:03;;;;;;;2.42;0.70;;;20.00;97.30;;;;;;4849305;29;20451;-38
2022/07/28 07:52:28;;;;;;;2.67;0.93;;;19.80;97.70;;;;;;4824841;29;20049;-33
2022/07/28 07:54:54;;;;;;;1.98;0.40;;;19.60;97.70;;;;;;4836346;29;20099;-41
2022/07/28 07:57:19;;;;;;;2.58;0.68;;;19.70;97.90;;;;;;4842171;29;20145;-37
2022/07/28 07:59:45;;;;;;;1.80;0.50;;;20.00;96.90;;;;;;4836644;29;20432;-39
2022/07/28 08:02:11;;;;;;;0.63;0.50;;;20.20;96.90;;;;;;4830572;29;20108;-40
2022/07/28 08:04:36;;;;;;;0.73;0.47;;;20.50;96.50;;;;;;4840255;29;20107;-35
2022/07/28 08:07:02;;;;;;;2.40;0.60;;;20.80;96.30;;;;;;4818528;29;20449;-39
2022/07/28 08:09:27;;;;;;;3.92;0.68;;;20.80;96.90;;;;;;4842432;29;20038;-35
2022/07/28 08:11:53;;;;;;;2.35;0.70;;;20.70;96.50;;;;;;4836791;29;20395;-35
2022/07/28 08:14:19;;;;;;;0.57;0.45;;;20.60;96.90;;;;;;4833075;29;20033;-36
2022/07/28 08:16:44;;;;;;;4.68;0.40;;;20.80;97.00;;;;;;4833182;29;20471;-44
2022/07/28 08:19:10;;;;;;;1.58;0.47;;;20.80;95.90;;;;;;4835396;29;20044;-38
2022/07/28 08:21:35;;;;;;;1.17;0.55;;;20.60;96.40;;;;;;4845575;29;20033;-40
2022/07/28 08:24:02;;;;;;;2.28;0.50;;;20.80;96.30;;;;;;4843715;29;20164;-37
2022/07/28 08:26:28;;;;;;;2.47;0.50;;;20.80;96.50;;;;;;4834783;29;20034;-38
2022/07/28 08:28:54;;;;;;;0.50;0.50;;;20.80;96.10;;;;;;4840011;29;20294;-36
2022/07/28 08:31:20;;;;;;;0.70;0.70;;;21.10;95.50;;;;;;4822824;29;20038;-34
2022/07/28 08:33:49;;;;;;;1.02;0.55;;;20.90;95.40;;;;;;4840408;29;20570;-37
2022/07/28 08:36:15;;;;;;;3.10;0.43;;;20.70;96.40;;;;;;4833799;29;20034;-33
2022/07/28 08:38:40;;;;;;;1.67;0.52;;;20.70;96.60;;;;;;4836287;29;20371;-32
2022/07/28 08:41:11;;;;;;;2.47;0.70;;;21.10;96.20;;;;;;4841346;29;20048;-36
2022/07/28 08:43:41;;;;;;;1.70;0.35;;;21.40;95.10;;;;;;4817147;29;20034;-32
2022/07/28 08:46:07;;;;;;;0.70;0.50;;;21.50;95.40;;;;;;4836317;29;20037;-39
2022/07/28 08:48:35;;;;;;;0.97;0.37;;;21.60;95.30;;;;;;4834381;29;20044;-34
2022/07/28 08:51:06;;;;;;;4.68;0.60;;;21.80;94.90;;;;;;4840524;29;20049;-55
2022/07/28 08:56:24;;;;;;;1.10;0.43;;;22.60;94.70;;;;;;4836467;29;20521;-41
2022/07/28 08:58:49;;;;;;;0.82;0.60;;;22.60;93.60;;;;;;4842163;29;20044;-39
2022/07/28 09:01:15;;;;;;;1.90;0.55;;;22.70;93.90;;;;;;4839993;29;20395;-35
2022/07/28 09:03:41;;;;;;;4.60;0.65;;;23.10;93.40;;;;;;4836658;29;20594;-34
2022/07/28 09:06:07;;;;;;;1.42;0.55;;;23.30;92.70;;;;;;4834090;29;20565;-35
2022/07/28 09:08:33;;;;;;;1.60;0.68;;;23.20;93.00;;;;;;4857470;29;20108;-34
2022/07/28 09:10:58;;;;;;;3.78;0.77;;;22.90;92.50;;;;;;4844686;29;20034;-38
2022/07/28 09:13:24;;;;;;;4.07;0.40;;;22.80;92.90;;;;;;4843589;29;20079;-40
2022/07/28 09:15:50;;;;;;;10.95;0.73;;;23.20;92.80;;;;;;4825884;29;20045;-45
2022/07/28 09:18:17;;;;;;;0.93;0.50;;;23.60;92.60;;;;;;4844557;29;20033;-34
2022/07/28 09:20:43;;;;;;;1.23;0.68;;;23.60;91.90;;;;;;4832828;29;20491;-34
2022/07/28 09:23:10;;;;;;;0.60;0.60;;;23.60;91.70;;;;;;4833557;29;20048;-39
2022/07/28 09:25:36;;;;;;;0.70;0.70;;;23.80;91.80;;;;;;4840474;29;20026;-42
2022/07/28 09:28:20;;;;;;;0.70;0.70;;;23.70;91.60;;;;;;4840472;29;20034;-34
2022/07/28 09:30:48;;;;;;;0.30;0.30;;;23.80;91.40;;;;;;4836082;29;20073;-35
2022/07/28 09:33:26;;;;;;;0.55;0.55;;;24.10;91.40;;;;;;4822438;29;20494;-37
2022/07/28 09:36:00;;;;;;;0.65;0.50;;;24.60;90.50;;;;;;4839872;29;20541;-34
2022/07/28 09:38:26;;;;;;;6.75;0.50;;;24.60;90.00;;;;;;4831400;29;20482;-35
2022/07/28 09:41:01;;;;;;;0.52;0.45;;;24.90;89.20;;;;;;4820887;29;20142;-33
2022/07/28 09:43:43;;;;;;;0.63;0.38;;;25.00;89.20;;;;;;4836696;29;20113;-36
2022/07/28 09:46:17;;;;;;;3.22;0.70;;;24.80;89.40;;;;;;4837890;29;20596;-39
2022/07/28 09:48:58;;;;;;;4.93;0.50;;;24.40;90.20;;;;;;4833656;29;20034;-39
2022/07/28 09:51:29;;;;;;;1.95;0.52;;;24.50;90.40;;;;;;4832151;29;20055;-39
2022/07/28 09:54:14;;;;;;;0.75;0.50;;;24.40;90.70;;;;;;4838153;29;20029;-39
2022/07/28 09:56:42;;;;;;;0.80;0.45;;;24.60;90.10;;;;;;4842308;29;20518;-57
2022/07/28 09:59:09;;;;;;;1.27;0.52;;;24.50;90.10;;;;;;4850836;29;20030;-35
2022/07/28 10:01:56;;;;;;;0.43;0.43;;;23.90;90.90;;;;;;4836219;29;20026;-41
2022/07/28 10:04:32;;;;;;;;;;;23.60;90.80;;;;;;4841422;29;20072;-41
2022/07/28 10:07:27;;;;;;;0.88;0.32;;;23.30;90.90;;;;;;4824323;29;20015;-40
2022/07/28 10:10:10;;;;;;;0.13;0.13;;;23.60;91.00;;;;;;4833467;29;20511;-36
2022/07/28 10:12:37;;;;;;;0.40;0.40;;;23.90;90.70;;;;;;4839969;29;20482;-52
2022/07/28 10:16:09;;;;;;;;;;;24.40;89.10;;;;;;4837955;29;20059;-36
2022/07/28 10:17:57;;;;;;;0.68;0.38;;;24.00;89.90;;;;;;4838280;29;19916;-38
2022/07/28 10:20:25;;;;;;;0.55;0.40;;;23.70;90.40;;;;;;4845319;29;20097;-36
2022/07/28 10:22:53;;;;;;;0.20;0.20;;;24.00;90.40;;;;;;4827845;29;20045;-38
2022/07/28 10:25:20;;;;;;;1.73;0.77;;;23.50;90.00;;;;;;4836317;29;20490;-70
2022/07/28 10:27:47;;;;;;;;;;;23.40;90.40;;;;;;4832721;29;21605;-37
2022/07/28 10:30:13;;;;;;;3.42;0.40;;;23.50;90.30;;;;;;4836180;29;20010;-40
2022/07/28 10:32:44;;;;;;;3.80;0.52;;;23.30;90.00;;;;;;4836140;29;20522;-38
2022/07/28 10:35:15;;;;;;;4.75;0.50;;;23.30;90.40;;;;;;4834619;29;20361;-39
2022/07/28 10:38:04;;;;;;;2.25;0.70;;;24.10;89.10;;;;;;4820948;29;20394;-40
2022/07/28 10:40:37;;;;;;;1.73;0.55;;;24.20;90.00;;;;;;4835165;29;20050;-37
2022/07/28 10:43:04;;;;;;;0.15;0.15;;;24.10;90.10;;;;;;4837928;29;20041;-38
2022/07/28 10:45:30;;;;;;;1.02;0.60;;;24.60;89.80;;;;;;4835629;29;20387;-42
2022/07/28 10:47:58;;;;;;;5.90;0.75;;;24.70;89.80;;;;;;4841005;29;20747;-40
2022/07/28 10:50:25;;;;;;;1.10;0.52;;;24.70;89.60;;;;;;4836150;29;20566;-34
2022/07/28 10:52:52;;;;;;;2.15;0.47;;;24.20;90.00;;;;;;4836629;29;20144;-42
2022/07/28 10:55:27;;;;;;;2.17;1.30;;;24.40;90.10;;;;;;4830743;29;20137;-39
2022/07/28 10:58:25;;;;;;;0.45;0.38;;;23.70;89.80;;;;;;4836662;29;20038;-41
2022/07/28 11:00:52;;;;;;;0.28;0.28;;;24.00;89.00;;;;;;4834225;29;20038;-36
2022/07/28 11:03:35;;;;;;;0.38;0.30;;;24.10;89.50;;;;;;4840713;29;20560;-36
2022/07/28 11:06:30;;;;;;;1.23;0.40;;;24.10;90.10;;;;;;4837795;29;20042;-41
2022/07/28 11:09:14;;;;;;;1.50;0.40;;;24.20;89.20;;;;;;4833878;29;20026;-38
2022/07/28 11:11:51;;;;;;;1.90;0.47;;;23.90;89.30;;;;;;4840670;29;20073;-40
2022/07/28 11:14:23;;;;;;;0.43;0.43;;;23.60;90.40;;;;;;4840153;29;20572;-37
2022/07/28 11:16:50;;;;;;;2.72;0.43;;;23.20;90.40;;;;;;4833173;29;20037;-39
2022/07/28 11:19:17;;;;;;;2.90;0.52;;;23.10;90.70;;;;;;4821004;29;20033;-37
2022/07/28 11:22:03;;;;;;;;;;;23.20;90.40;;;;;;4837708;29;20034;-39
2022/07/28 11:24:58;;;;;;;0.73;0.52;;;23.40;90.60;;;;;;4839662;29;20282;-41
2022/07/28 11:27:42;;;;;;;0.70;0.63;;;23.50;90.10;;;;;;4838938;29;20178;-37
2022/07/28 11:30:08;;;;;;;0.22;0.22;;;23.50;90.60;;;;;;4836409;29;20045;-34
2022/07/28 11:32:49;;;;;;;1.98;0.50;;;23.30;90.60;;;;;;4847017;29;20050;-38
2022/07/28 11:35:27;;;;;;;1.95;0.82;;;23.30;90.60;;;;;;4843089;29;20112;-35
2022/07/28 11:38:01;;;;;;;1.05;0.40;;;23.40;90.40;;;;;;4855832;29;20479;-34
2022/07/28 11:40:34;;;;;;;0.73;0.43;;;23.40;90.50;;;;;;4848182;29;20045;-52
2022/07/28 11:43:22;;;;;;;0.38;0.28;;;23.50;90.90;;;;;;4845329;29;20085;-52
2022/07/28 11:46:01;;;;;;;5.88;0.40;;;23.40;90.10;;;;;;4838664;29;20483;-35
2022/07/28 11:48:28;;;;;;;2.50;0.90;;;23.60;90.50;;;;;;4837106;29;20033;-38
2022/07/28 11:51:03;;;;;;;1.52;0.88;;;23.40;90.80;;;;;;4839199;29;20125;-39
2022/07/28 11:53:40;;;;;;;1.73;0.90;;;23.10;91.00;;;;;;4834212;29;21174;-40
2022/07/28 11:56:07;;;;;;;3.13;0.45;;;23.10;91.20;;;;;;4843187;29;20038;-38
2022/07/28 11:58:33;;;;;;;1.45;0.35;;;23.10;90.80;;;;;;4840553;29;20399;-39
2022/07/28 12:01:14;;;;;;;1.02;0.50;;;23.10;90.60;;;;;;4846022;29;20037;-37
2022/07/28 12:03:41;;;;;;;2.15;0.63;;;23.00;90.70;;;;;;4826524;29;20275;-37
2022/07/28 12:06:07;;;;;;;0.52;0.40;;;22.80;91.10;;;;;;4847128;29;20052;-36
2022/07/28 12:09:03;;;;;;;1.40;0.50;;;22.90;91.10;;;;;;4841224;29;20491;-34
2022/07/28 12:11:34;;;;;;;0.50;0.50;;;23.30;91.70;;;;;;4814046;29;20047;-33
2022/07/28 12:14:11;;;;;;;6.55;0.50;;;23.80;91.10;;;;;;4840133;29;20518;-34
2022/07/28 12:16:41;;;;;;;0.85;0.50;;;24.20;90.80;;;;;;4847625;29;20029;-42
2022/07/28 12:19:08;;;;;;;2.42;1.15;;;24.50;90.50;;;;;;4846439;29;20116;-40
2022/07/28 12:21:45;;;;;;;0.75;0.50;;;24.70;90.40;;;;;;4841491;29;20090;-39
2022/07/28 12:24:13;;;;;;;0.80;0.30;;;25.10;88.90;;;;;;4842554;29;20402;-39
2022/07/28 12:26:40;;;;;;;5.88;0.50;;;25.20;89.60;;;;;;4845893;29;20498;-39
2022/07/28 12:29:06;;;;;;;0.73;0.55;;;25.00;89.70;;;;;;4844272;29;20093;-36
2022/07/28 12:31:32;;;;;;;4.47;0.50;;;24.70;89.30;;;;;;4844094;29;20359;-35
2022/07/28 12:34:04;;;;;;;2.83;0.70;;;24.10;89.90;;;;;;4848334;29;20030;-38
2022/07/28 12:36:33;;;;;;;0.55;0.45;;;24.20;89.60;;;;;;4844521;29;20531;-34
2022/07/28 12:39:00;;;;;;;0.40;0.40;;;24.40;89.90;;;;;;4839918;29;22320;-41
2022/07/28 12:41:37;;;;;;;0.73;0.43;;;24.40;89.60;;;;;;4845578;29;20033;-34
2022/07/28 12:44:03;;;;;;;2.15;0.60;;;24.30;89.60;;;;;;4845921;29;20037;-44
2022/07/28 12:46:30;;;;;;;1.83;0.43;;;24.10;89.60;;;;;;4833232;29;20506;-41
2022/07/28 12:48:58;;;;;;;0.63;0.50;;;24.10;90.00;;;;;;4846309;29;20104;-41
2022/07/28 12:51:40;;;;;;;0.90;0.70;;;24.20;90.30;;;;;;4838141;29;20347;-38
2022/07/28 12:54:08;;;;;;;0.63;0.45;;;23.90;90.10;;;;;;4840138;29;20025;-39
2022/07/28 12:56:47;;;;;;;1.23;0.50;;;24.00;90.20;;;;;;4837295;29;20026;-36
2022/07/28 12:59:13;;;;;;;0.47;0.47;;;24.20;89.80;;;;;;4835711;29;20153;-42
2022/07/28 13:01:45;;;;;;;0.95;0.50;;;24.10;89.80;;;;;;4843946;29;20041;-38
2022/07/28 13:04:11;;;;;;;4.10;0.47;;;23.70;89.70;;;;;;4840433;29;20084;-39
2022/07/28 13:06:36;;;;;;;0.80;0.80;;;23.90;90.00;;;;;;4834255;29;20452;-36